sensor_id;sensor_type;location;lat;lon;timestamp;temperature;humidity
12013;DHT22;6065;48.138;16.402;2024-03-02T00:00:46;7.90;99.90
12013;DHT22;6065;48.138;16.402;2024-03-02T00:03:15;7.90;99.90
12013;DHT22;6065;48.138;16.402;2024-03-02T00:05:42;7.90;99.90
12013;DHT22;6065;48.138;16.402;2024-03-02T00:08:09;7.90;99.90
12013;DHT22;6065;48.138;16.402;2024-03-02T00:10:38;7.80;99.90
12013;DHT22;6065;48.138;16.402;2024-03-02T00:13:06;7.80;99.90
12013;DHT22;6065;48.138;16.402;2024-03-02T00:15:40;7.80;99.90
12013;DHT22;6065;48.138;16.402;2024-03-02T00:18:08;7.80;99.90
12013;DHT22;6065;48.138;16.402;2024-03-02T00:20:37;7.80;99.90
12013;DHT22;6065;48.138;16.402;2024-03-02T00:23:04;7.70;99.90
12013;DHT22;6065;48.138;16.402;2024-03-02T00:25:37;7.70;99.90
12013;DHT22;6065;48.138;16.402;2024-03-02T00:28:05;7.70;99.90
12013;DHT22;6065;48.138;16.402;2024-03-02T00:30:54;7.60;99.90
12013;DHT22;6065;48.138;16.402;2024-03-02T00:33:21;7.60;99.90
12013;DHT22;6065;48.138;16.402;2024-03-02T00:35:48;7.60;99.90
12013;DHT22;6065;48.138;16.402;2024-03-02T00:38:15;7.60;99.90
12013;DHT22;6065;48.138;16.402;2024-03-02T00:40:43;7.70;99.90
12013;DHT22;6065;48.138;16.402;2024-03-02T00:43:16;7.70;99.90
12013;DHT22;6065;48.138;16.402;2024-03-02T00:45:45;7.80;99.90
12013;DHT22;6065;48.138;16.402;2024-03-02T00:48:13;7.70;99.90
12013;DHT22;6065;48.138;16.402;2024-03-02T00:50:41;7.70;99.90
12013;DHT22;6065;48.138;16.402;2024-03-02T00:53:09;7.70;99.90
12013;DHT22;6065;48.138;16.402;2024-03-02T00:55:37;7.70;99.90
12013;DHT22;6065;48.138;16.402;2024-03-02T00:58:05;7.60;99.90
12013;DHT22;6065;48.138;16.402;2024-03-02T01:00:32;7.60;99.90
12013;DHT22;6065;48.138;16.402;2024-03-02T01:02:59;7.60;99.90
12013;DHT22;6065;48.138;16.402;2024-03-02T01:05:25;7.50;99.90
12013;DHT22;6065;48.138;16.402;2024-03-02T01:07:53;7.50;99.90
12013;DHT22;6065;48.138;16.402;2024-03-02T01:10:20;7.50;99.90
12013;DHT22;6065;48.138;16.402;2024-03-02T01:12:46;7.50;99.90
12013;DHT22;6065;48.138;16.402;2024-03-02T01:15:15;7.40;99.90
12013;DHT22;6065;48.138;16.402;2024-03-02T01:17:41;7.40;99.90
12013;DHT22;6065;48.138;16.402;2024-03-02T01:20:08;7.30;99.90
12013;DHT22;6065;48.138;16.402;2024-03-02T01:22:35;7.30;99.90
12013;DHT22;6065;48.138;16.402;2024-03-02T01:25:03;7.30;99.90
12013;DHT22;6065;48.138;16.402;2024-03-02T01:27:29;7.20;99.90
12013;DHT22;6065;48.138;16.402;2024-03-02T01:29:56;7.10;99.90
12013;DHT22;6065;48.138;16.402;2024-03-02T01:32:26;7.10;99.90
12013;DHT22;6065;48.138;16.402;2024-03-02T01:34:53;7.10;99.90
12013;DHT22;6065;48.138;16.402;2024-03-02T01:37:20;7.00;99.90
12013;DHT22;6065;48.138;16.402;2024-03-02T01:39:48;7.10;99.90
12013;DHT22;6065;48.138;16.402;2024-03-02T01:42:14;7.10;99.90
12013;DHT22;6065;48.138;16.402;2024-03-02T01:44:41;7.20;99.90
12013;DHT22;6065;48.138;16.402;2024-03-02T01:47:08;7.20;99.90
12013;DHT22;6065;48.138;16.402;2024-03-02T01:49:36;7.20;99.90
12013;DHT22;6065;48.138;16.402;2024-03-02T01:52:04;7.20;99.90
12013;DHT22;6065;48.138;16.402;2024-03-02T01:54:31;7.20;99.90
12013;DHT22;6065;48.138;16.402;2024-03-02T01:56:58;7.20;99.90
12013;DHT22;6065;48.138;16.402;2024-03-02T01:59:24;7.10;99.90
12013;DHT22;6065;48.138;16.402;2024-03-02T02:01:51;7.10;99.90
12013;DHT22;6065;48.138;16.402;2024-03-02T02:04:18;7.00;99.90
12013;DHT22;6065;48.138;16.402;2024-03-02T02:06:48;7.10;99.90
12013;DHT22;6065;48.138;16.402;2024-03-02T02:09:15;7.00;99.90
12013;DHT22;6065;48.138;16.402;2024-03-02T02:11:43;7.00;99.90
12013;DHT22;6065;48.138;16.402;2024-03-02T02:14:10;7.00;99.90
12013;DHT22;6065;48.138;16.402;2024-03-02T02:16:37;7.00;99.90
12013;DHT22;6065;48.138;16.402;2024-03-02T02:19:04;7.00;99.90
12013;DHT22;6065;48.138;16.402;2024-03-02T02:21:32;7.00;99.90
12013;DHT22;6065;48.138;16.402;2024-03-02T02:23:59;6.90;99.90
12013;DHT22;6065;48.138;16.402;2024-03-02T02:26:28;6.90;99.90
12013;DHT22;6065;48.138;16.402;2024-03-02T02:28:55;6.90;99.90
12013;DHT22;6065;48.138;16.402;2024-03-02T02:31:21;6.90;99.90
12013;DHT22;6065;48.138;16.402;2024-03-02T02:33:48;6.90;99.90
12013;DHT22;6065;48.138;16.402;2024-03-02T02:36:15;6.80;99.90
12013;DHT22;6065;48.138;16.402;2024-03-02T02:38:43;6.80;99.90
12013;DHT22;6065;48.138;16.402;2024-03-02T02:41:12;6.80;99.90
12013;DHT22;6065;48.138;16.402;2024-03-02T02:43:40;6.80;99.90
12013;DHT22;6065;48.138;16.402;2024-03-02T02:46:07;6.70;99.90
12013;DHT22;6065;48.138;16.402;2024-03-02T02:48:33;6.70;99.90
12013;DHT22;6065;48.138;16.402;2024-03-02T02:51:00;6.70;99.90
12013;DHT22;6065;48.138;16.402;2024-03-02T02:53:27;6.70;99.90
12013;DHT22;6065;48.138;16.402;2024-03-02T02:55:55;6.70;99.90
12013;DHT22;6065;48.138;16.402;2024-03-02T02:58:22;6.70;99.90
12013;DHT22;6065;48.138;16.402;2024-03-02T03:00:49;6.70;99.90
12013;DHT22;6065;48.138;16.402;2024-03-02T03:03:16;6.70;99.90
12013;DHT22;6065;48.138;16.402;2024-03-02T03:05:42;6.70;99.90
12013;DHT22;6065;48.138;16.402;2024-03-02T03:08:09;6.70;99.90
12013;DHT22;6065;48.138;16.402;2024-03-02T03:10:36;6.70;99.90
12013;DHT22;6065;48.138;16.402;2024-03-02T03:13:04;6.70;99.90
12013;DHT22;6065;48.138;16.402;2024-03-02T03:15:34;6.60;99.90
12013;DHT22;6065;48.138;16.402;2024-03-02T03:18:01;6.60;99.90
12013;DHT22;6065;48.138;16.402;2024-03-02T03:20:29;6.60;99.90
12013;DHT22;6065;48.138;16.402;2024-03-02T03:22:55;6.70;99.90
12013;DHT22;6065;48.138;16.402;2024-03-02T03:25:22;6.70;99.90
12013;DHT22;6065;48.138;16.402;2024-03-02T03:27:49;6.70;99.90
12013;DHT22;6065;48.138;16.402;2024-03-02T03:30:19;6.70;99.90
12013;DHT22;6065;48.138;16.402;2024-03-02T03:32:46;6.70;99.90
12013;DHT22;6065;48.138;16.402;2024-03-02T03:35:13;6.60;99.90
12013;DHT22;6065;48.138;16.402;2024-03-02T03:37:40;6.60;99.90
12013;DHT22;6065;48.138;16.402;2024-03-02T03:40:07;6.60;99.90
12013;DHT22;6065;48.138;16.402;2024-03-02T03:42:35;6.70;99.90
12013;DHT22;6065;48.138;16.402;2024-03-02T03:45:02;6.60;99.90
12013;DHT22;6065;48.138;16.402;2024-03-02T03:47:32;6.60;99.90
12013;DHT22;6065;48.138;16.402;2024-03-02T03:49:59;6.60;99.90
12013;DHT22;6065;48.138;16.402;2024-03-02T03:52:26;6.50;99.90
12013;DHT22;6065;48.138;16.402;2024-03-02T03:54:52;6.50;99.90
12013;DHT22;6065;48.138;16.402;2024-03-02T03:57:19;6.50;99.90
12013;DHT22;6065;48.138;16.402;2024-03-02T03:59:46;6.50;99.90
12013;DHT22;6065;48.138;16.402;2024-03-02T04:02:13;6.50;99.90
12013;DHT22;6065;48.138;16.402;2024-03-02T04:04:41;6.50;99.90
12013;DHT22;6065;48.138;16.402;2024-03-02T04:07:09;6.50;99.90
12013;DHT22;6065;48.138;16.402;2024-03-02T04:09:35;6.40;99.90
12013;DHT22;6065;48.138;16.402;2024-03-02T04:12:04;6.40;99.90
12013;DHT22;6065;48.138;16.402;2024-03-02T04:14:31;6.40;99.90
12013;DHT22;6065;48.138;16.402;2024-03-02T04:16:58;6.40;99.90
12013;DHT22;6065;48.138;16.402;2024-03-02T04:19:24;6.40;99.90
12013;DHT22;6065;48.138;16.402;2024-03-02T04:21:53;6.40;99.90
12013;DHT22;6065;48.138;16.402;2024-03-02T04:24:19;6.40;99.90
12013;DHT22;6065;48.138;16.402;2024-03-02T04:26:46;6.30;99.90
12013;DHT22;6065;48.138;16.402;2024-03-02T04:29:13;6.30;99.90
12013;DHT22;6065;48.138;16.402;2024-03-02T04:31:40;6.30;99.90
12013;DHT22;6065;48.138;16.402;2024-03-02T04:34:06;6.30;99.90
12013;DHT22;6065;48.138;16.402;2024-03-02T04:36:33;6.30;99.90
12013;DHT22;6065;48.138;16.402;2024-03-02T04:39:01;6.30;99.90
12013;DHT22;6065;48.138;16.402;2024-03-02T04:41:28;6.30;99.90
12013;DHT22;6065;48.138;16.402;2024-03-02T04:43:55;6.20;99.90
12013;DHT22;6065;48.138;16.402;2024-03-02T04:46:22;6.20;99.90
12013;DHT22;6065;48.138;16.402;2024-03-02T04:48:48;6.30;99.90
12013;DHT22;6065;48.138;16.402;2024-03-02T04:51:20;6.30;99.90
12013;DHT22;6065;48.138;16.402;2024-03-02T04:53:47;6.30;99.90
12013;DHT22;6065;48.138;16.402;2024-03-02T04:56:15;6.30;99.90
12013;DHT22;6065;48.138;16.402;2024-03-02T04:59:02;6.30;99.90
12013;DHT22;6065;48.138;16.402;2024-03-02T05:01:29;6.30;99.90
12013;DHT22;6065;48.138;16.402;2024-03-02T05:03:55;6.20;99.90
12013;DHT22;6065;48.138;16.402;2024-03-02T05:06:23;6.20;99.90
12013;DHT22;6065;48.138;16.402;2024-03-02T05:08:49;6.10;99.90
12013;DHT22;6065;48.138;16.402;2024-03-02T05:11:18;6.10;99.90
12013;DHT22;6065;48.138;16.402;2024-03-02T05:14:02;6.10;99.90
12013;DHT22;6065;48.138;16.402;2024-03-02T05:16:29;6.10;99.90
12013;DHT22;6065;48.138;16.402;2024-03-02T05:18:56;6.10;99.90
12013;DHT22;6065;48.138;16.402;2024-03-02T05:21:23;6.10;99.90
12013;DHT22;6065;48.138;16.402;2024-03-02T05:23:49;6.00;99.90
12013;DHT22;6065;48.138;16.402;2024-03-02T05:26:18;6.10;99.90
12013;DHT22;6065;48.138;16.402;2024-03-02T05:28:44;6.10;99.90
12013;DHT22;6065;48.138;16.402;2024-03-02T05:31:11;6.20;99.90
12013;DHT22;6065;48.138;16.402;2024-03-02T05:33:41;6.20;99.90
12013;DHT22;6065;48.138;16.402;2024-03-02T05:36:08;6.20;99.90
12013;DHT22;6065;48.138;16.402;2024-03-02T05:38:35;6.30;99.90
12013;DHT22;6065;48.138;16.402;2024-03-02T05:41:02;6.30;99.90
12013;DHT22;6065;48.138;16.402;2024-03-02T05:43:30;6.20;99.90
12013;DHT22;6065;48.138;16.402;2024-03-02T05:45:57;6.20;99.90
12013;DHT22;6065;48.138;16.402;2024-03-02T05:48:23;6.20;99.90
12013;DHT22;6065;48.138;16.402;2024-03-02T05:50:50;6.20;99.90
12013;DHT22;6065;48.138;16.402;2024-03-02T05:53:17;6.20;99.90
12013;DHT22;6065;48.138;16.402;2024-03-02T05:55:44;6.30;99.90
12013;DHT22;6065;48.138;16.402;2024-03-02T05:58:11;6.30;99.90
12013;DHT22;6065;48.138;16.402;2024-03-02T06:00:52;6.20;99.90
12013;DHT22;6065;48.138;16.402;2024-03-02T06:03:19;6.20;99.90
12013;DHT22;6065;48.138;16.402;2024-03-02T06:05:46;6.30;99.90
12013;DHT22;6065;48.138;16.402;2024-03-02T06:08:14;6.30;99.90
12013;DHT22;6065;48.138;16.402;2024-03-02T06:10:41;6.40;99.90
12013;DHT22;6065;48.138;16.402;2024-03-02T06:13:08;6.40;99.90
12013;DHT22;6065;48.138;16.402;2024-03-02T06:15:35;6.40;99.90
12013;DHT22;6065;48.138;16.402;2024-03-02T06:18:03;6.40;99.90
12013;DHT22;6065;48.138;16.402;2024-03-02T06:20:32;6.40;99.90
12013;DHT22;6065;48.138;16.402;2024-03-02T06:22:58;6.40;99.90
12013;DHT22;6065;48.138;16.402;2024-03-02T06:25:25;6.50;99.90
12013;DHT22;6065;48.138;16.402;2024-03-02T06:27:52;6.40;99.90
12013;DHT22;6065;48.138;16.402;2024-03-02T06:30:19;6.40;99.90
12013;DHT22;6065;48.138;16.402;2024-03-02T06:32:45;6.40;99.90
12013;DHT22;6065;48.138;16.402;2024-03-02T06:35:14;6.40;99.90
12013;DHT22;6065;48.138;16.402;2024-03-02T06:37:40;6.40;99.90
12013;DHT22;6065;48.138;16.402;2024-03-02T06:40:08;6.50;99.90
12013;DHT22;6065;48.138;16.402;2024-03-02T06:42:34;6.40;99.90
12013;DHT22;6065;48.138;16.402;2024-03-02T06:45:01;6.40;99.90
12013;DHT22;6065;48.138;16.402;2024-03-02T06:47:28;6.40;99.90
12013;DHT22;6065;48.138;16.402;2024-03-02T06:49:55;6.40;99.90
12013;DHT22;6065;48.138;16.402;2024-03-02T06:52:24;6.40;99.90
12013;DHT22;6065;48.138;16.402;2024-03-02T06:54:50;6.40;99.90
12013;DHT22;6065;48.138;16.402;2024-03-02T06:57:17;6.40;99.90
12013;DHT22;6065;48.138;16.402;2024-03-02T06:59:46;6.40;99.90
12013;DHT22;6065;48.138;16.402;2024-03-02T07:02:14;6.40;99.90
12013;DHT22;6065;48.138;16.402;2024-03-02T07:04:40;6.40;99.90
12013;DHT22;6065;48.138;16.402;2024-03-02T07:07:07;6.40;99.90
12013;DHT22;6065;48.138;16.402;2024-03-02T07:09:35;6.50;99.90
12013;DHT22;6065;48.138;16.402;2024-03-02T07:12:02;6.60;99.90
12013;DHT22;6065;48.138;16.402;2024-03-02T07:14:29;6.60;99.90
12013;DHT22;6065;48.138;16.402;2024-03-02T07:17:10;6.60;99.90
12013;DHT22;6065;48.138;16.402;2024-03-02T07:19:37;6.60;99.90
12013;DHT22;6065;48.138;16.402;2024-03-02T07:22:05;6.60;99.90
12013;DHT22;6065;48.138;16.402;2024-03-02T07:24:32;6.60;99.90
12013;DHT22;6065;48.138;16.402;2024-03-02T07:27:00;6.50;99.90
12013;DHT22;6065;48.138;16.402;2024-03-02T07:29:27;6.50;99.90
12013;DHT22;6065;48.138;16.402;2024-03-02T07:31:54;6.40;99.90
12013;DHT22;6065;48.138;16.402;2024-03-02T07:34:21;6.30;99.90
12013;DHT22;6065;48.138;16.402;2024-03-02T07:36:48;6.30;99.90
12013;DHT22;6065;48.138;16.402;2024-03-02T07:39:14;6.20;99.90
12013;DHT22;6065;48.138;16.402;2024-03-02T07:41:41;6.20;99.90
12013;DHT22;6065;48.138;16.402;2024-03-02T07:44:10;6.20;99.90
12013;DHT22;6065;48.138;16.402;2024-03-02T07:46:39;6.20;99.90
12013;DHT22;6065;48.138;16.402;2024-03-02T07:49:06;6.20;99.90
12013;DHT22;6065;48.138;16.402;2024-03-02T07:51:33;6.10;99.90
12013;DHT22;6065;48.138;16.402;2024-03-02T07:54:00;6.20;99.90
12013;DHT22;6065;48.138;16.402;2024-03-02T07:56:27;6.20;99.90
12013;DHT22;6065;48.138;16.402;2024-03-02T07:58:54;6.20;99.90
12013;DHT22;6065;48.138;16.402;2024-03-02T08:01:24;6.20;99.90
12013;DHT22;6065;48.138;16.402;2024-03-02T08:03:50;6.30;99.90
12013;DHT22;6065;48.138;16.402;2024-03-02T08:06:18;6.30;99.90
12013;DHT22;6065;48.138;16.402;2024-03-02T08:08:46;6.30;99.90
12013;DHT22;6065;48.138;16.402;2024-03-02T08:11:13;6.30;99.90
12013;DHT22;6065;48.138;16.402;2024-03-02T08:13:40;6.30;99.90
12013;DHT22;6065;48.138;16.402;2024-03-02T08:16:07;6.30;99.90
12013;DHT22;6065;48.138;16.402;2024-03-02T08:18:36;6.30;99.90
12013;DHT22;6065;48.138;16.402;2024-03-02T08:21:03;6.30;99.90
12013;DHT22;6065;48.138;16.402;2024-03-02T08:23:30;6.30;99.90
12013;DHT22;6065;48.138;16.402;2024-03-02T08:25:57;6.40;99.90
12013;DHT22;6065;48.138;16.402;2024-03-02T08:28:24;6.40;99.90
12013;DHT22;6065;48.138;16.402;2024-03-02T08:30:51;6.40;99.90
12013;DHT22;6065;48.138;16.402;2024-03-02T08:33:17;6.30;99.90
12013;DHT22;6065;48.138;16.402;2024-03-02T08:35:45;6.30;99.90
12013;DHT22;6065;48.138;16.402;2024-03-02T08:38:12;6.30;99.90
12013;DHT22;6065;48.138;16.402;2024-03-02T08:40:39;6.30;99.90
12013;DHT22;6065;48.138;16.402;2024-03-02T08:43:06;6.40;99.90
12013;DHT22;6065;48.138;16.402;2024-03-02T08:45:33;6.40;99.90
12013;DHT22;6065;48.138;16.402;2024-03-02T08:48:01;6.40;99.90
12013;DHT22;6065;48.138;16.402;2024-03-02T08:50:28;6.60;99.90
12013;DHT22;6065;48.138;16.402;2024-03-02T08:52:56;6.60;99.90
12013;DHT22;6065;48.138;16.402;2024-03-02T08:55:23;6.70;99.90
12013;DHT22;6065;48.138;16.402;2024-03-02T08:57:49;6.70;99.90
12013;DHT22;6065;48.138;16.402;2024-03-02T09:00:17;6.80;99.90
12013;DHT22;6065;48.138;16.402;2024-03-02T09:02:44;6.80;99.90
12013;DHT22;6065;48.138;16.402;2024-03-02T09:05:10;6.80;99.90
12013;DHT22;6065;48.138;16.402;2024-03-02T09:07:37;6.90;99.90
12013;DHT22;6065;48.138;16.402;2024-03-02T09:10:07;7.00;99.90
12013;DHT22;6065;48.138;16.402;2024-03-02T09:12:34;7.00;99.90
12013;DHT22;6065;48.138;16.402;2024-03-02T09:15:01;7.10;99.90
12013;DHT22;6065;48.138;16.402;2024-03-02T09:17:28;7.10;99.90
12013;DHT22;6065;48.138;16.402;2024-03-02T09:19:55;7.20;99.90
12013;DHT22;6065;48.138;16.402;2024-03-02T09:22:22;7.20;99.90
12013;DHT22;6065;48.138;16.402;2024-03-02T09:24:49;7.30;99.90
12013;DHT22;6065;48.138;16.402;2024-03-02T09:27:18;7.30;99.90
12013;DHT22;6065;48.138;16.402;2024-03-02T09:29:44;7.30;99.90
12013;DHT22;6065;48.138;16.402;2024-03-02T09:32:12;7.40;99.90
12013;DHT22;6065;48.138;16.402;2024-03-02T09:34:39;7.40;99.90
12013;DHT22;6065;48.138;16.402;2024-03-02T09:37:06;7.40;99.90
12013;DHT22;6065;48.138;16.402;2024-03-02T09:39:33;7.50;99.90
12013;DHT22;6065;48.138;16.402;2024-03-02T09:42:00;7.50;99.90
12013;DHT22;6065;48.138;16.402;2024-03-02T09:44:28;7.50;99.90
12013;DHT22;6065;48.138;16.402;2024-03-02T09:46:55;7.50;99.90
12013;DHT22;6065;48.138;16.402;2024-03-02T09:49:22;7.60;99.90
12013;DHT22;6065;48.138;16.402;2024-03-02T09:51:49;7.60;99.90
12013;DHT22;6065;48.138;16.402;2024-03-02T09:54:16;7.70;99.90
12013;DHT22;6065;48.138;16.402;2024-03-02T09:56:43;7.70;99.90
12013;DHT22;6065;48.138;16.402;2024-03-02T09:59:10;7.70;99.90
12013;DHT22;6065;48.138;16.402;2024-03-02T10:01:38;7.70;99.90
12013;DHT22;6065;48.138;16.402;2024-03-02T10:04:05;7.80;99.90
12013;DHT22;6065;48.138;16.402;2024-03-02T10:06:32;7.80;99.90
12013;DHT22;6065;48.138;16.402;2024-03-02T10:08:59;7.80;99.90
12013;DHT22;6065;48.138;16.402;2024-03-02T10:11:26;7.90;99.90
12013;DHT22;6065;48.138;16.402;2024-03-02T10:14:03;7.90;99.90
12013;DHT22;6065;48.138;16.402;2024-03-02T10:16:30;8.00;99.90
12013;DHT22;6065;48.138;16.402;2024-03-02T10:18:58;8.00;99.90
12013;DHT22;6065;48.138;16.402;2024-03-02T10:21:39;8.10;99.90
12013;DHT22;6065;48.138;16.402;2024-03-02T10:24:07;8.10;99.90
12013;DHT22;6065;48.138;16.402;2024-03-02T10:26:37;8.20;99.90
12013;DHT22;6065;48.138;16.402;2024-03-02T10:29:04;8.20;99.90
12013;DHT22;6065;48.138;16.402;2024-03-02T10:31:30;8.30;99.90
12013;DHT22;6065;48.138;16.402;2024-03-02T10:33:59;8.30;99.90
12013;DHT22;6065;48.138;16.402;2024-03-02T10:36:27;8.30;99.90
12013;DHT22;6065;48.138;16.402;2024-03-02T10:38:56;8.40;99.90
12013;DHT22;6065;48.138;16.402;2024-03-02T10:41:24;8.40;99.90
12013;DHT22;6065;48.138;16.402;2024-03-02T10:43:53;8.50;99.90
12013;DHT22;6065;48.138;16.402;2024-03-02T10:46:26;8.50;99.90
12013;DHT22;6065;48.138;16.402;2024-03-02T10:48:54;8.60;99.90
12013;DHT22;6065;48.138;16.402;2024-03-02T10:51:22;8.60;99.90
12013;DHT22;6065;48.138;16.402;2024-03-02T10:53:49;8.60;99.90
12013;DHT22;6065;48.138;16.402;2024-03-02T10:56:16;8.70;99.90
12013;DHT22;6065;48.138;16.402;2024-03-02T10:58:44;8.70;99.90
12013;DHT22;6065;48.138;16.402;2024-03-02T11:01:12;8.80;99.90
12013;DHT22;6065;48.138;16.402;2024-03-02T11:03:39;8.80;99.90
12013;DHT22;6065;48.138;16.402;2024-03-02T11:06:07;8.90;99.90
12013;DHT22;6065;48.138;16.402;2024-03-02T11:08:37;9.00;99.90
12013;DHT22;6065;48.138;16.402;2024-03-02T11:11:06;9.00;99.90
12013;DHT22;6065;48.138;16.402;2024-03-02T11:13:34;9.10;99.90
12013;DHT22;6065;48.138;16.402;2024-03-02T11:16:04;9.30;99.90
12013;DHT22;6065;48.138;16.402;2024-03-02T11:18:32;9.40;99.90
12013;DHT22;6065;48.138;16.402;2024-03-02T11:20:59;9.50;99.90
12013;DHT22;6065;48.138;16.402;2024-03-02T11:23:31;9.60;99.90
12013;DHT22;6065;48.138;16.402;2024-03-02T11:28:41;9.70;99.90
12013;DHT22;6065;48.138;16.402;2024-03-02T11:31:08;9.80;99.90
12013;DHT22;6065;48.138;16.402;2024-03-02T11:33:35;9.80;99.90
12013;DHT22;6065;48.138;16.402;2024-03-02T11:36:01;9.80;99.90
12013;DHT22;6065;48.138;16.402;2024-03-02T11:38:31;9.90;99.90
12013;DHT22;6065;48.138;16.402;2024-03-02T11:40:59;9.90;99.90
12013;DHT22;6065;48.138;16.402;2024-03-02T11:43:27;9.90;99.90
12013;DHT22;6065;48.138;16.402;2024-03-02T11:45:58;9.90;99.90
12013;DHT22;6065;48.138;16.402;2024-03-02T11:48:25;9.90;99.90
12013;DHT22;6065;48.138;16.402;2024-03-02T11:50:52;9.90;99.90
12013;DHT22;6065;48.138;16.402;2024-03-02T11:53:19;9.90;99.90
12013;DHT22;6065;48.138;16.402;2024-03-02T11:55:46;10.00;99.90
12013;DHT22;6065;48.138;16.402;2024-03-02T11:58:14;10.00;99.90
12013;DHT22;6065;48.138;16.402;2024-03-02T12:00:42;10.10;99.90
12013;DHT22;6065;48.138;16.402;2024-03-02T12:03:12;10.10;99.90
12013;DHT22;6065;48.138;16.402;2024-03-02T12:05:39;10.10;99.90
12013;DHT22;6065;48.138;16.402;2024-03-02T12:08:06;10.10;99.90
12013;DHT22;6065;48.138;16.402;2024-03-02T12:10:33;10.20;99.90
12013;DHT22;6065;48.138;16.402;2024-03-02T12:13:01;10.20;99.90
12013;DHT22;6065;48.138;16.402;2024-03-02T12:15:28;10.30;99.90
12013;DHT22;6065;48.138;16.402;2024-03-02T12:17:56;10.30;99.90
12013;DHT22;6065;48.138;16.402;2024-03-02T12:20:25;10.30;99.90
12013;DHT22;6065;48.138;16.402;2024-03-02T12:22:52;10.40;99.90
12013;DHT22;6065;48.138;16.402;2024-03-02T12:25:19;10.40;99.90
12013;DHT22;6065;48.138;16.402;2024-03-02T12:27:46;10.50;99.90
12013;DHT22;6065;48.138;16.402;2024-03-02T12:30:13;10.60;99.90
12013;DHT22;6065;48.138;16.402;2024-03-02T12:32:40;10.60;99.90
12013;DHT22;6065;48.138;16.402;2024-03-02T12:35:07;10.70;99.90
12013;DHT22;6065;48.138;16.402;2024-03-02T12:37:42;10.70;99.90
12013;DHT22;6065;48.138;16.402;2024-03-02T12:40:10;10.80;99.90
12013;DHT22;6065;48.138;16.402;2024-03-02T12:42:36;10.90;99.90
12013;DHT22;6065;48.138;16.402;2024-03-02T12:45:04;10.90;99.90
12013;DHT22;6065;48.138;16.402;2024-03-02T12:47:31;10.90;99.90
12013;DHT22;6065;48.138;16.402;2024-03-02T12:49:58;10.90;99.90
12013;DHT22;6065;48.138;16.402;2024-03-02T12:52:25;11.00;99.90
12013;DHT22;6065;48.138;16.402;2024-03-02T12:54:53;10.90;99.90
12013;DHT22;6065;48.138;16.402;2024-03-02T12:57:25;11.00;99.90
12013;DHT22;6065;48.138;16.402;2024-03-02T12:59:52;11.00;99.90
12013;DHT22;6065;48.138;16.402;2024-03-02T13:02:19;11.00;99.90
12013;DHT22;6065;48.138;16.402;2024-03-02T13:04:52;11.00;99.90
12013;DHT22;6065;48.138;16.402;2024-03-02T13:07:19;11.10;99.90
12013;DHT22;6065;48.138;16.402;2024-03-02T13:09:47;11.10;99.90
12013;DHT22;6065;48.138;16.402;2024-03-02T13:12:16;11.10;99.90
12013;DHT22;6065;48.138;16.402;2024-03-02T13:14:43;11.10;99.90
12013;DHT22;6065;48.138;16.402;2024-03-02T13:17:09;11.20;99.90
12013;DHT22;6065;48.138;16.402;2024-03-02T13:19:36;11.20;99.90
12013;DHT22;6065;48.138;16.402;2024-03-02T13:22:03;11.30;99.90
12013;DHT22;6065;48.138;16.402;2024-03-02T13:24:31;11.30;99.90
12013;DHT22;6065;48.138;16.402;2024-03-02T13:26:58;11.40;99.90
12013;DHT22;6065;48.138;16.402;2024-03-02T13:29:26;11.50;99.90
12013;DHT22;6065;48.138;16.402;2024-03-02T13:31:53;11.60;99.90
12013;DHT22;6065;48.138;16.402;2024-03-02T13:34:20;11.60;99.90
12013;DHT22;6065;48.138;16.402;2024-03-02T13:36:47;11.60;99.90
12013;DHT22;6065;48.138;16.402;2024-03-02T13:39:14;11.70;99.90
12013;DHT22;6065;48.138;16.402;2024-03-02T13:41:41;11.70;99.90
12013;DHT22;6065;48.138;16.402;2024-03-02T13:44:08;11.70;99.90
12013;DHT22;6065;48.138;16.402;2024-03-02T13:46:36;11.70;99.90
12013;DHT22;6065;48.138;16.402;2024-03-02T13:49:03;11.80;99.90
12013;DHT22;6065;48.138;16.402;2024-03-02T13:51:30;11.80;99.90
12013;DHT22;6065;48.138;16.402;2024-03-02T13:53:58;11.80;99.90
12013;DHT22;6065;48.138;16.402;2024-03-02T13:56:25;11.80;99.90
12013;DHT22;6065;48.138;16.402;2024-03-02T13:58:52;11.80;99.90
12013;DHT22;6065;48.138;16.402;2024-03-02T14:01:19;11.80;99.90
12013;DHT22;6065;48.138;16.402;2024-03-02T14:03:47;11.90;99.90
12013;DHT22;6065;48.138;16.402;2024-03-02T14:06:13;11.90;99.90
12013;DHT22;6065;48.138;16.402;2024-03-02T14:08:40;11.80;99.90
12013;DHT22;6065;48.138;16.402;2024-03-02T14:11:10;11.90;99.90
12013;DHT22;6065;48.138;16.402;2024-03-02T14:13:40;11.90;99.90
12013;DHT22;6065;48.138;16.402;2024-03-02T14:16:07;11.90;99.90
12013;DHT22;6065;48.138;16.402;2024-03-02T14:18:34;11.80;99.90
12013;DHT22;6065;48.138;16.402;2024-03-02T14:21:02;11.80;99.90
12013;DHT22;6065;48.138;16.402;2024-03-02T14:23:29;11.80;99.90
12013;DHT22;6065;48.138;16.402;2024-03-02T14:25:56;11.70;99.90
12013;DHT22;6065;48.138;16.402;2024-03-02T14:28:24;11.70;99.90
12013;DHT22;6065;48.138;16.402;2024-03-02T14:30:51;11.70;99.90
12013;DHT22;6065;48.138;16.402;2024-03-02T14:33:19;11.60;99.90
12013;DHT22;6065;48.138;16.402;2024-03-02T14:35:45;11.60;99.90
12013;DHT22;6065;48.138;16.402;2024-03-02T14:38:14;11.60;99.90
12013;DHT22;6065;48.138;16.402;2024-03-02T14:40:40;11.60;99.90
12013;DHT22;6065;48.138;16.402;2024-03-02T14:43:08;11.60;99.90
12013;DHT22;6065;48.138;16.402;2024-03-02T14:45:35;11.50;99.90
12013;DHT22;6065;48.138;16.402;2024-03-02T14:48:02;11.50;99.90
12013;DHT22;6065;48.138;16.402;2024-03-02T14:50:29;11.50;99.90
12013;DHT22;6065;48.138;16.402;2024-03-02T14:52:56;11.50;99.90
12013;DHT22;6065;48.138;16.402;2024-03-02T14:55:26;11.40;99.90
12013;DHT22;6065;48.138;16.402;2024-03-02T14:57:52;11.40;99.90
12013;DHT22;6065;48.138;16.402;2024-03-02T15:00:19;11.40;99.90
12013;DHT22;6065;48.138;16.402;2024-03-02T15:02:46;11.40;99.90
12013;DHT22;6065;48.138;16.402;2024-03-02T15:05:13;11.40;99.90
12013;DHT22;6065;48.138;16.402;2024-03-02T15:07:40;11.40;99.90
12013;DHT22;6065;48.138;16.402;2024-03-02T15:10:07;11.40;99.90
12013;DHT22;6065;48.138;16.402;2024-03-02T15:12:35;11.30;99.90
12013;DHT22;6065;48.138;16.402;2024-03-02T15:15:03;11.30;99.90
12013;DHT22;6065;48.138;16.402;2024-03-02T15:17:30;11.30;99.90
12013;DHT22;6065;48.138;16.402;2024-03-02T15:19:57;11.30;99.90
12013;DHT22;6065;48.138;16.402;2024-03-02T15:22:24;11.30;99.90
12013;DHT22;6065;48.138;16.402;2024-03-02T15:24:51;11.30;99.90
12013;DHT22;6065;48.138;16.402;2024-03-02T15:27:19;11.30;99.90
12013;DHT22;6065;48.138;16.402;2024-03-02T15:29:47;11.30;99.90
12013;DHT22;6065;48.138;16.402;2024-03-02T15:32:15;11.30;99.90
12013;DHT22;6065;48.138;16.402;2024-03-02T15:34:42;11.30;99.90
12013;DHT22;6065;48.138;16.402;2024-03-02T15:37:09;11.30;99.90
12013;DHT22;6065;48.138;16.402;2024-03-02T15:39:36;11.30;99.90
12013;DHT22;6065;48.138;16.402;2024-03-02T15:42:03;11.20;99.90
12013;DHT22;6065;48.138;16.402;2024-03-02T15:44:30;11.30;99.90
12013;DHT22;6065;48.138;16.402;2024-03-02T15:46:58;11.20;99.90